createdAt,value
2023-03-07T00:00:42.089Z,19.08
2023-03-07T00:01:51.833Z,16.98
2023-03-07T00:03:01.512Z,18.23
2023-03-07T00:04:11.408Z,16.65
2023-03-07T00:05:19.995Z,16.30
2023-03-07T00:06:29.459Z,17.23
2023-03-07T00:08:56.036Z,17.42
2023-03-07T00:10:06.102Z,19.22
2023-03-07T00:11:16.117Z,19.55
2023-03-07T00:12:26.382Z,19.63
2023-03-07T00:13:37.195Z,20.30
2023-03-07T00:14:46.162Z,21.12
2023-03-07T00:15:55.081Z,19.60
2023-03-07T00:17:05.159Z,19.57
2023-03-07T00:18:15.161Z,20.40
2023-03-07T00:19:23.988Z,20.65
2023-03-07T00:20:33.364Z,21.72
2023-03-07T00:21:43.929Z,21.07
2023-03-07T00:22:52.448Z,20.65
2023-03-07T00:24:01.373Z,19.18
2023-03-07T00:25:11.219Z,19.88
2023-03-07T00:26:22.472Z,20.93
2023-03-07T00:27:33.269Z,21.00
2023-03-07T00:28:43.689Z,20.23
2023-03-07T00:29:53.286Z,21.55
2023-03-07T00:32:23.857Z,19.63
2023-03-07T00:33:34.398Z,19.45
2023-03-07T00:34:43.951Z,18.50
2023-03-07T00:36:03.016Z,18.53
2023-03-07T00:37:14.465Z,19.55
2023-03-07T00:38:23.492Z,19.50
2023-03-07T00:40:42.632Z,17.35
2023-03-07T00:41:52.168Z,19.32
2023-03-07T00:43:01.061Z,18.65
2023-03-07T00:44:10.714Z,17.13
2023-03-07T00:45:21.177Z,19.53
2023-03-07T00:48:07.746Z,19.68
2023-03-07T00:50:25.646Z,17.48
2023-03-07T00:51:35.478Z,20.75
2023-03-07T00:52:44.491Z,15.35
2023-03-07T00:53:53.337Z,17.97
2023-03-07T00:55:02.474Z,16.37
2023-03-07T00:56:20.644Z,16.08
2023-03-07T00:57:30.373Z,16.70
2023-03-07T00:58:39.869Z,18.07
2023-03-07T00:59:49.297Z,17.80
2023-03-07T01:02:34.176Z,17.25
2023-03-07T01:03:45.382Z,17.28
2023-03-07T01:04:53.895Z,17.20
2023-03-07T01:06:04.523Z,17.67
2023-03-07T01:07:13.297Z,17.73
2023-03-07T01:09:38.188Z,17.80
2023-03-07T01:10:51.799Z,15.00
2023-03-07T01:12:02.299Z,17.90
2023-03-07T01:13:12.927Z,19.15
2023-03-07T01:14:22.575Z,18.98
2023-03-07T01:15:32.822Z,17.72
2023-03-07T01:16:41.895Z,15.40
2023-03-07T01:17:51.984Z,17.98
2023-03-07T01:20:19.828Z,17.97
2023-03-07T01:21:32.329Z,17.98
2023-03-07T01:22:43.325Z,16.62
2023-03-07T01:23:53.233Z,17.82
2023-03-07T01:25:01.959Z,15.17
2023-03-07T01:26:24.297Z,16.20
2023-03-07T01:28:51.137Z,17.05
2023-03-07T01:30:00.814Z,16.60
2023-03-07T01:31:11.161Z,15.32
2023-03-07T01:32:22.630Z,15.55
2023-03-07T01:33:31.914Z,16.65
2023-03-07T01:34:40.528Z,16.13
2023-03-07T01:35:50.697Z,18.70
2023-03-07T01:36:59.697Z,15.75
2023-03-07T01:38:09.929Z,15.57
2023-03-07T01:40:34.827Z,16.90
2023-03-07T01:41:46.310Z,15.73
2023-03-07T01:43:14.134Z,18.68
2023-03-07T01:44:26.189Z,17.98
2023-03-07T01:45:40.058Z,16.50
2023-03-07T01:46:56.078Z,16.35
2023-03-07T01:48:06.502Z,16.55
2023-03-07T01:49:34.502Z,16.87
2023-03-07T01:50:46.148Z,17.20
2023-03-07T01:52:05.219Z,18.50
2023-03-07T01:53:16.049Z,16.93
2023-03-07T01:54:26.632Z,16.65
2023-03-07T01:55:37.105Z,16.60
2023-03-07T01:56:53.546Z,16.63
2023-03-07T01:58:14.789Z,17.22
2023-03-07T01:59:28.457Z,17.60
2023-03-07T02:00:38.833Z,17.72
2023-03-07T02:01:50.504Z,17.63
2023-03-07T02:03:13.323Z,16.60
2023-03-07T02:04:27.231Z,17.17
2023-03-07T02:06:57.556Z,16.00
2023-03-07T02:08:13.110Z,18.57
2023-03-07T02:09:25.641Z,17.05
2023-03-07T02:10:36.915Z,18.25
2023-03-07T02:11:48.632Z,17.75
2023-03-07T02:12:58.031Z,17.03
2023-03-07T02:14:06.862Z,19.00
2023-03-07T02:15:17.232Z,19.64
2023-03-07T02:16:26.064Z,17.00
2023-03-07T02:17:36.629Z,18.40
2023-03-07T02:18:49.054Z,17.30
2023-03-07T02:20:05.598Z,17.38
2023-03-07T02:22:44.610Z,18.37
2023-03-07T02:23:59.989Z,18.90
2023-03-07T02:26:40.332Z,20.12
2023-03-07T02:27:53.587Z,17.02
2023-03-07T02:29:03.508Z,17.94
2023-03-07T02:30:13.828Z,18.80
2023-03-07T02:31:24.517Z,18.05
2023-03-07T02:32:34.059Z,19.90
2023-03-07T02:33:42.588Z,17.22
2023-03-07T02:34:53.415Z,19.52
2023-03-07T02:37:25.725Z,18.27
2023-03-07T02:38:40.373Z,16.75
2023-03-07T02:41:08.603Z,22.25
2023-03-07T02:43:39.945Z,19.48
2023-03-07T02:45:59.409Z,17.85
2023-03-07T02:47:10.389Z,17.93
2023-03-07T02:48:19.866Z,20.90
2023-03-07T02:49:29.545Z,18.23
2023-03-07T02:50:39.477Z,18.10
2023-03-07T02:51:49.110Z,18.20
2023-03-07T02:52:58.944Z,17.45
2023-03-07T02:54:09.010Z,18.93
2023-03-07T02:55:18.933Z,17.53
2023-03-07T02:56:31.230Z,18.38
2023-03-07T02:58:55.460Z,17.15
2023-03-07T03:00:11.187Z,17.66
2023-03-07T03:01:20.613Z,16.65
2023-03-07T03:02:29.448Z,21.42
2023-03-07T03:03:39.061Z,19.25
2023-03-07T03:04:48.521Z,19.08
2023-03-07T03:05:58.541Z,17.90
2023-03-07T03:07:08.536Z,18.00
2023-03-07T03:09:33.721Z,18.22
2023-03-07T03:10:43.802Z,17.27
2023-03-07T03:11:54.253Z,16.75
2023-03-07T03:13:05.270Z,18.02
2023-03-07T03:14:14.497Z,18.23
2023-03-07T03:15:23.732Z,19.78
2023-03-07T03:16:32.504Z,17.93
2023-03-07T03:17:42.752Z,18.17
2023-03-07T03:20:13.642Z,19.33
2023-03-07T03:22:40.806Z,20.35
2023-03-07T03:23:50.643Z,18.12
2023-03-07T03:25:00.394Z,18.85
2023-03-07T03:26:11.563Z,18.33
2023-03-07T03:27:20.523Z,19.80
2023-03-07T03:28:31.522Z,20.40
2023-03-07T03:29:41.671Z,17.16
2023-03-07T03:32:18.827Z,20.20
2023-03-07T03:33:31.032Z,21.58
2023-03-07T03:34:40.535Z,18.75
2023-03-07T03:35:50.177Z,19.77
2023-03-07T03:36:59.277Z,18.53
2023-03-07T03:38:08.299Z,21.42
2023-03-07T03:40:33.328Z,20.43
2023-03-07T03:41:43.408Z,20.52
2023-03-07T03:42:53.376Z,20.80
2023-03-07T03:44:03.204Z,20.10
2023-03-07T03:45:14.511Z,21.58
2023-03-07T03:46:23.599Z,20.00
2023-03-07T03:47:33.278Z,18.80
2023-03-07T03:48:42.562Z,22.28
2023-03-07T03:49:53.224Z,22.73
2023-03-07T03:51:07.609Z,21.93
2023-03-07T03:52:16.705Z,23.20
2023-03-07T03:53:25.564Z,21.00
2023-03-07T03:54:35.886Z,19.50
2023-03-07T03:55:44.415Z,20.10
2023-03-07T03:56:54.756Z,23.08
2023-03-07T03:58:04.062Z,23.50
2023-03-07T03:59:12.904Z,22.53
2023-03-07T04:00:22.097Z,20.77
2023-03-07T04:01:31.722Z,20.10
2023-03-07T04:02:41.444Z,21.82
2023-03-07T04:03:54.476Z,20.42
2023-03-07T04:05:05.750Z,21.02
2023-03-07T04:07:31.523Z,22.12
2023-03-07T04:08:41.779Z,21.00
2023-03-07T04:09:51.032Z,24.60
2023-03-07T04:11:01.260Z,22.88
2023-03-07T04:12:20.937Z,22.73
2023-03-07T04:13:31.105Z,20.87
2023-03-07T04:14:40.070Z,21.33
2023-03-07T04:15:54.318Z,21.00
2023-03-07T04:17:05.211Z,21.83
2023-03-07T04:18:14.331Z,20.50
2023-03-07T04:19:23.156Z,22.80
2023-03-07T04:20:32.484Z,21.25
2023-03-07T04:21:41.163Z,22.20
2023-03-07T04:22:50.463Z,22.15
2023-03-07T04:24:00.508Z,21.57
2023-03-07T04:26:22.428Z,24.10
2023-03-07T04:27:33.173Z,22.47
2023-03-07T04:28:47.345Z,25.20
2023-03-07T04:29:58.183Z,23.35
2023-03-07T04:31:07.145Z,23.82
2023-03-07T04:32:15.789Z,24.33
2023-03-07T04:34:42.685Z,24.85
2023-03-07T04:35:51.136Z,24.42
2023-03-07T04:37:01.374Z,25.13
2023-03-07T04:38:11.088Z,22.35
2023-03-07T04:39:20.276Z,24.38
2023-03-07T04:40:30.012Z,24.83
2023-03-07T04:41:39.449Z,24.80
2023-03-07T04:42:51.013Z,21.30
2023-03-07T04:45:10.969Z,23.67
2023-03-07T04:47:35.059Z,22.17
2023-03-07T04:48:45.433Z,22.45
2023-03-07T04:51:06.173Z,20.58
2023-03-07T04:52:15.770Z,22.55
2023-03-07T04:53:24.412Z,25.58
2023-03-07T04:54:33.414Z,21.95
2023-03-07T04:55:45.307Z,20.50
2023-03-07T04:56:54.034Z,22.35
2023-03-07T04:58:03.832Z,22.50
2023-03-07T04:59:12.514Z,23.12
2023-03-07T05:00:23.090Z,21.27
2023-03-07T05:01:32.055Z,20.10
2023-03-07T05:02:40.969Z,20.60
2023-03-07T05:03:50.314Z,20.12
2023-03-07T05:05:01.485Z,20.78
2023-03-07T05:06:14.183Z,19.75
2023-03-07T05:07:23.406Z,22.00
2023-03-07T05:08:34.087Z,47.07
2023-03-07T05:09:43.953Z,23.70
2023-03-07T05:10:52.499Z,21.57
2023-03-07T05:12:02.078Z,21.27
2023-03-07T05:13:12.630Z,23.75
2023-03-07T05:14:22.459Z,19.80
2023-03-07T05:15:31.221Z,20.50
2023-03-07T05:16:40.449Z,22.20
2023-03-07T05:17:48.913Z,19.47
2023-03-07T05:18:57.552Z,24.13
2023-03-07T05:21:25.977Z,21.78
2023-03-07T05:22:34.902Z,22.17
2023-03-07T05:23:43.955Z,26.18
2023-03-07T05:24:54.071Z,21.83
2023-03-07T05:26:02.487Z,23.58
2023-03-07T05:27:13.072Z,19.83
2023-03-07T05:28:22.217Z,20.43
2023-03-07T05:29:32.388Z,21.90
2023-03-07T05:30:41.104Z,20.80
2023-03-07T05:31:55.740Z,19.78
2023-03-07T05:34:19.913Z,21.57
2023-03-07T05:35:30.265Z,21.57
2023-03-07T05:36:40.889Z,22.52
2023-03-07T05:37:51.552Z,20.98
2023-03-07T05:39:00.662Z,20.00
2023-03-07T05:40:11.843Z,20.30
2023-03-07T05:41:23.415Z,19.78
2023-03-07T05:42:32.122Z,17.13
2023-03-07T05:43:41.666Z,20.05
2023-03-07T05:44:51.633Z,18.42
2023-03-07T05:47:16.384Z,19.53
2023-03-07T05:48:26.543Z,19.37
2023-03-07T05:49:35.188Z,19.42
2023-03-07T05:51:59.312Z,17.93
2023-03-07T05:53:09.090Z,18.32
2023-03-07T05:54:18.720Z,20.82
2023-03-07T05:55:28.632Z,19.60
2023-03-07T05:56:38.372Z,19.82
2023-03-07T05:57:49.032Z,19.10
2023-03-07T05:58:57.808Z,21.32
2023-03-07T06:01:23.637Z,18.02
2023-03-07T06:03:48.734Z,17.60
2023-03-07T06:04:58.405Z,16.48
2023-03-07T06:06:08.083Z,18.02
2023-03-07T06:07:17.856Z,17.85
2023-03-07T06:08:26.882Z,15.62
2023-03-07T06:09:35.498Z,17.88
2023-03-07T06:12:02.435Z,17.85
2023-03-07T06:13:20.343Z,15.48
2023-03-07T06:14:31.406Z,15.17
2023-03-07T06:15:40.172Z,15.90
2023-03-07T06:16:49.144Z,18.25
2023-03-07T06:17:59.878Z,15.08
2023-03-07T06:19:08.645Z,16.03
2023-03-07T06:20:21.536Z,14.90
2023-03-07T06:21:30.771Z,14.74
2023-03-07T06:22:40.920Z,13.02
2023-03-07T06:23:50.539Z,14.62
2023-03-07T06:25:00.855Z,16.27
2023-03-07T06:26:11.865Z,19.75
2023-03-07T06:27:22.216Z,16.62
2023-03-07T06:28:33.026Z,16.97
2023-03-07T06:29:42.905Z,15.62
2023-03-07T06:30:53.054Z,12.88
2023-03-07T06:32:02.225Z,18.90
2023-03-07T06:33:11.340Z,17.20
2023-03-07T06:36:42.223Z,13.42
2023-03-07T06:37:53.931Z,14.85
2023-03-07T06:39:03.118Z,14.78
2023-03-07T06:41:28.814Z,14.73
2023-03-07T06:42:38.543Z,16.82
2023-03-07T06:43:52.777Z,18.53
2023-03-07T06:45:05.697Z,18.15
2023-03-07T06:46:17.810Z,17.15
2023-03-07T06:47:27.406Z,16.18
2023-03-07T06:48:36.558Z,16.00
2023-03-07T06:49:46.855Z,16.97
2023-03-07T06:50:56.231Z,16.45
2023-03-07T06:52:05.134Z,17.67
2023-03-07T06:53:14.639Z,19.58
2023-03-07T06:54:24.491Z,18.08
2023-03-07T06:55:33.496Z,19.38
2023-03-07T06:56:45.312Z,17.20
2023-03-07T06:57:54.149Z,17.40
2023-03-07T06:59:03.472Z,20.23
2023-03-07T07:00:14.464Z,20.33
2023-03-07T07:01:23.082Z,18.70
2023-03-07T07:02:34.612Z,18.68
2023-03-07T07:05:01.533Z,19.50
2023-03-07T07:06:11.372Z,18.75
2023-03-07T07:07:20.130Z,17.93
2023-03-07T07:08:29.524Z,18.38
2023-03-07T07:09:40.290Z,16.85
2023-03-07T07:10:49.093Z,16.45
2023-03-07T07:11:58.723Z,16.20
2023-03-07T07:13:07.936Z,12.62
2023-03-07T07:14:17.231Z,14.55
2023-03-07T07:15:26.240Z,11.12
2023-03-07T07:16:35.862Z,10.65
2023-03-07T07:17:44.807Z,10.65
2023-03-07T07:18:54.017Z,11.15
2023-03-07T07:20:06.049Z,10.05
2023-03-07T07:21:16.863Z,12.18
2023-03-07T07:23:36.075Z,9.85
2023-03-07T07:24:45.616Z,10.60
2023-03-07T07:25:55.080Z,10.72
2023-03-07T07:27:05.504Z,11.40
2023-03-07T07:28:14.349Z,12.70
2023-03-07T07:29:24.825Z,11.02
2023-03-07T07:30:36.636Z,12.02
2023-03-07T07:31:46.524Z,12.57
2023-03-07T07:34:12.677Z,12.62
2023-03-07T07:35:21.992Z,14.35
2023-03-07T07:36:33.193Z,13.20
2023-03-07T07:37:43.760Z,13.60
2023-03-07T07:38:53.664Z,12.72
2023-03-07T07:40:02.489Z,12.63
2023-03-07T07:41:11.327Z,14.85
2023-03-07T07:42:21.134Z,14.97
2023-03-07T07:43:32.511Z,16.15
2023-03-07T07:44:51.840Z,16.92
2023-03-07T07:47:20.629Z,10.60
2023-03-07T07:49:45.763Z,10.93
2023-03-07T07:50:54.695Z,9.67
2023-03-07T07:52:04.927Z,10.63
2023-03-07T07:53:16.981Z,10.43
2023-03-07T07:54:28.564Z,10.57
2023-03-07T07:55:39.103Z,11.48
2023-03-07T07:56:47.675Z,12.32
2023-03-07T07:57:56.565Z,11.45
2023-03-07T07:59:07.585Z,12.05
2023-03-07T08:01:36.513Z,12.22
2023-03-07T08:02:45.184Z,10.15
2023-03-07T08:05:13.316Z,237.84
2023-03-07T08:06:26.209Z,106.98
2023-03-07T08:07:35.777Z,26.30
2023-03-07T08:08:45.033Z,15.70
2023-03-07T08:09:53.553Z,13.53
2023-03-07T08:11:03.802Z,11.90
2023-03-07T08:12:12.909Z,11.00
2023-03-07T08:13:22.351Z,12.93
2023-03-07T08:14:33.930Z,11.98
2023-03-07T08:15:45.184Z,15.45
2023-03-07T08:16:54.278Z,12.05
2023-03-07T08:18:03.158Z,12.63
2023-03-07T08:19:11.869Z,12.00
2023-03-07T08:21:38.376Z,12.62
2023-03-07T08:22:50.708Z,15.20
2023-03-07T08:23:59.139Z,13.22
2023-03-07T08:25:10.406Z,12.50
2023-03-07T08:26:20.280Z,15.08
2023-03-07T08:27:28.896Z,13.50
2023-03-07T08:28:37.991Z,12.93
2023-03-07T08:32:29.715Z,12.30
2023-03-07T08:33:38.639Z,12.92
2023-03-07T08:34:48.304Z,12.88
2023-03-07T08:35:59.223Z,12.63
2023-03-07T08:37:08.406Z,9.80
2023-03-07T08:38:18.648Z,10.45
2023-03-07T08:40:42.051Z,12.30
2023-03-07T08:41:50.868Z,12.32
2023-03-07T08:43:00.535Z,10.67
2023-03-07T08:44:09.432Z,9.98
2023-03-07T08:45:18.329Z,11.25
2023-03-07T08:46:27.275Z,9.45
2023-03-07T08:47:37.835Z,9.58
2023-03-07T08:48:46.834Z,9.68
2023-03-07T08:49:55.724Z,11.18
2023-03-07T08:51:07.885Z,10.73
2023-03-07T08:52:16.341Z,10.88
2023-03-07T08:53:25.783Z,9.42
2023-03-07T08:54:34.395Z,10.33
2023-03-07T08:55:45.866Z,11.23
2023-03-07T08:56:55.248Z,11.12
2023-03-07T08:58:04.126Z,11.10
2023-03-07T08:59:12.644Z,10.77
2023-03-07T09:01:40.724Z,9.85
2023-03-07T09:02:48.774Z,9.62
2023-03-07T09:03:57.606Z,11.90
2023-03-07T09:05:06.816Z,12.68
2023-03-07T09:06:20.884Z,13.60
2023-03-07T09:07:30.556Z,13.67
2023-03-07T09:08:41.123Z,13.60
2023-03-07T09:09:50.146Z,16.12
2023-03-07T09:11:03.447Z,14.95
2023-03-07T09:12:14.751Z,14.73
2023-03-07T09:13:23.297Z,15.20
2023-03-07T09:14:32.329Z,16.22
2023-03-07T09:15:42.706Z,14.42
2023-03-07T09:16:52.337Z,14.65
2023-03-07T09:18:03.872Z,16.20
2023-03-07T09:20:28.364Z,15.85
2023-03-07T09:21:38.924Z,16.03
2023-03-07T09:22:48.373Z,16.86
2023-03-07T09:23:59.506Z,16.80
2023-03-07T09:25:10.292Z,17.68
2023-03-07T09:27:34.943Z,18.40
2023-03-07T09:28:44.123Z,18.55
2023-03-07T09:29:53.558Z,41.70
2023-03-07T09:31:10.061Z,41.70
2023-03-07T09:32:18.768Z,35.96
2023-03-07T09:33:28.499Z,37.20
2023-03-07T09:34:38.142Z,21.83
2023-03-07T09:35:48.267Z,17.20
2023-03-07T09:36:58.099Z,14.45
2023-03-07T09:38:06.629Z,12.92
2023-03-07T09:40:31.689Z,13.35
2023-03-07T09:42:03.872Z,14.47
2023-03-07T09:43:21.218Z,15.65
2023-03-07T09:44:54.991Z,17.37
2023-03-07T09:46:15.756Z,15.12
2023-03-07T09:49:21.209Z,15.55
2023-03-07T09:50:42.884Z,16.18
2023-03-07T09:51:56.257Z,17.53
2023-03-07T09:53:06.097Z,18.60
2023-03-07T09:55:41.049Z,18.00
2023-03-07T09:56:54.304Z,19.32
2023-03-07T09:58:09.190Z,19.12
2023-03-07T09:59:50.892Z,21.40
2023-03-07T10:01:01.029Z,19.55
2023-03-07T10:03:49.377Z,19.63
2023-03-07T10:05:11.296Z,19.15
2023-03-07T10:06:30.551Z,18.67
2023-03-07T10:08:57.145Z,18.87
2023-03-07T10:11:38.457Z,17.90
2023-03-07T10:14:29.234Z,17.20
2023-03-07T10:19:35.736Z,19.00
2023-03-07T10:22:23.033Z,21.32
2023-03-07T10:25:11.878Z,22.54
2023-03-07T10:27:55.458Z,22.15
2023-03-07T10:29:15.335Z,19.98
2023-03-07T10:31:43.384Z,19.92
2023-03-07T10:35:41.580Z,17.77
2023-03-07T10:37:08.082Z,17.76
2023-03-07T10:39:41.796Z,17.93
2023-03-07T10:42:15.055Z,22.45
2023-03-07T10:43:27.570Z,19.47
2023-03-07T10:44:36.197Z,19.34
2023-03-07T10:45:45.637Z,19.02
2023-03-07T10:46:58.556Z,18.83
2023-03-07T10:49:30.395Z,17.25
2023-03-07T10:51:16.575Z,15.28
2023-03-07T10:52:42.161Z,15.62
2023-03-07T10:53:52.056Z,16.22
2023-03-07T10:55:38.037Z,16.13
2023-03-07T10:57:05.896Z,20.50
2023-03-07T10:58:26.917Z,16.00
2023-03-07T11:00:50.009Z,14.62
2023-03-07T11:02:01.566Z,16.08
2023-03-07T11:04:46.385Z,17.95
2023-03-07T11:05:55.650Z,16.78
2023-03-07T11:07:06.638Z,17.32
2023-03-07T11:11:05.082Z,16.78
2023-03-07T11:12:23.076Z,17.40
2023-03-07T11:13:31.832Z,18.63
2023-03-07T11:16:23.677Z,14.78
2023-03-07T11:17:45.462Z,17.02
2023-03-07T11:18:56.892Z,17.88
2023-03-07T11:20:29.181Z,17.58
2023-03-07T11:21:38.073Z,18.55
2023-03-07T11:22:48.511Z,19.85
2023-03-07T11:25:36.321Z,16.15
2023-03-07T11:26:46.300Z,16.02
2023-03-07T11:27:57.784Z,14.97
2023-03-07T11:29:13.342Z,15.42
2023-03-07T11:32:15.707Z,15.30
2023-03-07T11:33:34.268Z,14.65
2023-03-07T11:38:04.277Z,12.92
2023-03-07T11:39:28.498Z,13.98
2023-03-07T11:42:07.030Z,15.10
2023-03-07T11:43:34.307Z,15.85
2023-03-07T11:45:11.259Z,16.10
2023-03-07T11:46:37.338Z,15.15
2023-03-07T11:47:53.138Z,14.93
2023-03-07T11:49:41.074Z,14.55
2023-03-07T11:52:17.585Z,15.00
2023-03-07T11:55:24.746Z,12.93
2023-03-07T11:56:36.968Z,13.75
2023-03-07T11:58:09.538Z,14.05
2023-03-07T11:59:33.773Z,14.02
2023-03-07T12:01:12.580Z,13.43
2023-03-07T12:02:31.918Z,13.30
2023-03-07T12:04:00.154Z,13.55
2023-03-07T12:07:35.404Z,12.00
2023-03-07T12:09:06.756Z,12.33
2023-03-07T12:10:39.483Z,14.17
2023-03-07T12:11:57.568Z,13.40
2023-03-07T12:15:03.094Z,15.02
2023-03-07T12:16:16.534Z,13.22
2023-03-07T12:18:02.728Z,15.85
2023-03-07T12:19:42.829Z,13.45
2023-03-07T12:21:16.749Z,12.90
2023-03-07T12:22:50.869Z,13.30
2023-03-07T12:25:38.444Z,15.53
2023-03-07T12:27:03.881Z,14.35
2023-03-07T12:28:19.524Z,15.23
2023-03-07T12:29:57.406Z,15.72
2023-03-07T12:31:18.867Z,14.12
2023-03-07T12:32:31.239Z,14.03
2023-03-07T12:33:46.575Z,16.65
2023-03-07T12:35:12.145Z,15.02
2023-03-07T12:36:34.443Z,14.80
2023-03-07T12:40:25.494Z,16.67
2023-03-07T12:43:11.284Z,16.58
2023-03-07T12:44:47.888Z,14.63
2023-03-07T12:47:33.945Z,15.13
2023-03-07T12:48:55.620Z,15.37
2023-03-07T12:50:25.947Z,15.00
2023-03-07T12:51:41.565Z,16.65
2023-03-07T12:52:54.920Z,16.63
2023-03-07T12:55:27.081Z,16.05
2023-03-07T12:58:28.430Z,16.00
2023-03-07T12:59:42.183Z,14.47
2023-03-07T13:01:00.710Z,15.53
2023-03-07T13:02:32.755Z,15.05
2023-03-07T13:05:21.271Z,14.75
2023-03-07T13:06:32.849Z,15.40
2023-03-07T13:07:43.174Z,16.78
2023-03-07T13:10:14.617Z,17.15
2023-03-07T13:11:27.952Z,16.45
2023-03-07T13:12:37.472Z,15.67
2023-03-07T13:13:50.232Z,15.63
2023-03-07T13:15:18.152Z,14.12
2023-03-07T13:16:42.923Z,14.80
2023-03-07T13:17:58.391Z,15.05
2023-03-07T13:19:30.618Z,13.80
2023-03-07T13:20:42.242Z,14.22
2023-03-07T13:21:50.921Z,14.37
2023-03-07T13:23:02.771Z,14.45
2023-03-07T13:24:40.588Z,15.40
2023-03-07T13:27:19.162Z,14.15
2023-03-07T13:30:11.905Z,14.70
2023-03-07T13:31:26.568Z,16.35
2023-03-07T13:32:55.184Z,15.12
2023-03-07T13:38:58.324Z,20.00
2023-03-07T13:43:09.573Z,17.58
2023-03-07T13:44:39.577Z,17.78
2023-03-07T13:46:04.192Z,18.55
2023-03-07T13:47:44.843Z,148.43
2023-03-07T13:50:35.866Z,21.20
2023-03-07T13:52:04.781Z,18.80
2023-03-07T13:54:33.665Z,16.78
2023-03-07T13:55:46.475Z,17.68
2023-03-07T13:58:28.718Z,16.48
2023-03-07T13:59:38.963Z,17.10
2023-03-07T14:01:00.839Z,17.00
2023-03-07T14:02:14.076Z,17.52
2023-03-07T14:04:46.074Z,20.05
2023-03-07T14:05:58.278Z,18.20
2023-03-07T14:07:21.219Z,18.82
2023-03-07T14:08:34.389Z,17.13
2023-03-07T14:09:50.592Z,19.55
2023-03-07T14:11:00.941Z,17.37
2023-03-07T14:12:48.224Z,19.65
2023-03-07T14:15:27.748Z,18.32
2023-03-07T14:16:43.333Z,18.22
2023-03-07T14:17:57.450Z,19.40
2023-03-07T14:19:26.072Z,18.65
2023-03-07T14:20:55.875Z,20.85
2023-03-07T14:23:47.147Z,19.92
2023-03-07T14:25:02.794Z,18.38
2023-03-07T14:26:28.698Z,16.93
2023-03-07T14:27:59.817Z,18.30
2023-03-07T14:29:23.452Z,16.37
2023-03-07T14:30:33.876Z,16.62
2023-03-07T14:31:43.757Z,16.05
2023-03-07T14:32:52.563Z,15.33
2023-03-07T14:34:03.184Z,15.70
2023-03-07T14:35:14.731Z,14.70
2023-03-07T14:36:28.714Z,16.88
2023-03-07T14:37:40.237Z,19.52
2023-03-07T14:38:50.751Z,20.65
2023-03-07T14:40:04.506Z,71.62
2023-03-07T14:43:09.539Z,29.77
2023-03-07T14:46:00.498Z,21.58
2023-03-07T14:47:38.388Z,23.52
2023-03-07T14:50:18.979Z,18.53
2023-03-07T14:52:46.669Z,21.90
2023-03-07T14:53:56.843Z,20.90
2023-03-07T14:56:29.056Z,20.13
2023-03-07T14:57:43.942Z,20.92
2023-03-07T14:58:57.109Z,22.53
2023-03-07T15:01:46.434Z,21.92
2023-03-07T15:03:10.522Z,22.20
2023-03-07T15:05:52.698Z,50.95
2023-03-07T15:07:05.487Z,33.32
2023-03-07T15:08:34.507Z,33.67
2023-03-07T15:09:43.213Z,25.77
2023-03-07T15:12:24.045Z,27.50
2023-03-07T15:13:47.893Z,28.10
2023-03-07T15:15:02.944Z,25.70
2023-03-07T15:17:34.556Z,21.90
2023-03-07T15:42:22.093Z,16.53
2023-03-07T15:43:36.577Z,17.45
2023-03-07T15:44:54.688Z,17.73
2023-03-07T15:46:09.581Z,18.05
2023-03-07T15:47:19.097Z,18.18
2023-03-07T15:48:37.292Z,19.35
2023-03-07T15:49:55.736Z,17.05
2023-03-07T15:51:18.977Z,16.20
2023-03-07T15:54:00.001Z,17.03
2023-03-07T15:55:19.529Z,15.08
2023-03-07T15:56:36.336Z,25.67
2023-03-07T15:59:20.418Z,37.07
2023-03-07T16:00:37.222Z,40.17
2023-03-07T16:01:45.956Z,43.75
2023-03-07T16:02:58.621Z,46.03
2023-03-07T16:04:29.779Z,46.28
2023-03-07T16:05:41.289Z,45.42
2023-03-07T16:06:50.029Z,49.78
2023-03-07T16:07:59.272Z,47.45
2023-03-07T16:09:18.479Z,48.20
2023-03-07T16:10:31.605Z,44.25
2023-03-07T16:11:42.230Z,42.77
2023-03-07T16:12:51.274Z,44.08
2023-03-07T16:14:00.857Z,46.85
2023-03-07T16:15:19.720Z,49.07
2023-03-07T16:16:31.159Z,46.80
2023-03-07T16:17:42.456Z,54.03
2023-03-07T16:18:54.519Z,58.70
2023-03-07T16:21:21.495Z,66.47
2023-03-07T16:22:30.557Z,64.03
2023-03-07T16:23:40.212Z,68.83
2023-03-07T16:24:49.921Z,66.72
2023-03-07T16:26:02.705Z,68.28
2023-03-07T16:27:17.753Z,70.10
2023-03-07T16:28:26.766Z,71.83
2023-03-07T16:29:35.273Z,67.47
2023-03-07T16:30:46.188Z,69.18
2023-03-07T16:31:55.155Z,68.58
2023-03-07T16:33:04.297Z,67.13
2023-03-07T16:35:31.546Z,85.12
2023-03-07T16:36:43.331Z,74.00
2023-03-07T16:37:53.280Z,70.10
2023-03-07T16:39:03.872Z,69.35
2023-03-07T16:40:16.068Z,69.87
2023-03-07T16:42:50.949Z,68.40
2023-03-07T16:44:03.011Z,64.67
2023-03-07T16:45:27.887Z,65.65
2023-03-07T16:46:37.126Z,52.78
2023-03-07T16:47:46.849Z,53.65
2023-03-07T16:48:56.068Z,52.38
2023-03-07T16:50:07.962Z,60.75
2023-03-07T16:51:22.361Z,60.20
2023-03-07T16:52:31.010Z,55.15
2023-03-07T16:53:40.578Z,55.25
2023-03-07T16:54:49.153Z,46.82
2023-03-07T16:55:58.982Z,51.95
2023-03-07T16:57:14.948Z,47.55
2023-03-07T16:59:47.680Z,69.97
2023-03-07T17:00:58.514Z,93.53
2023-03-07T17:02:20.439Z,66.47
2023-03-07T17:03:30.993Z,74.78
2023-03-07T17:04:39.875Z,73.20
2023-03-07T17:05:48.402Z,56.22
2023-03-07T17:07:04.396Z,53.82
2023-03-07T17:08:08.885Z,53.70
2023-03-07T17:09:18.640Z,51.45
2023-03-07T17:10:28.763Z,46.06
2023-03-07T17:11:40.104Z,47.82
2023-03-07T17:12:50.513Z,44.72
2023-03-07T17:14:02.270Z,41.45
2023-03-07T17:16:34.426Z,45.58
2023-03-07T17:17:45.178Z,51.67
2023-03-07T17:18:55.859Z,53.28
2023-03-07T17:20:05.990Z,51.93
2023-03-07T17:22:36.781Z,65.57
2023-03-07T17:23:46.463Z,59.80
2023-03-07T17:24:54.938Z,68.12
2023-03-07T17:26:04.712Z,59.75
2023-03-07T17:28:29.512Z,54.32
2023-03-07T17:29:42.026Z,54.87
2023-03-07T17:30:51.182Z,52.12
2023-03-07T17:31:59.995Z,50.77
2023-03-07T17:33:11.599Z,50.40
2023-03-07T17:34:31.505Z,50.90
2023-03-07T17:35:41.749Z,48.30
2023-03-07T17:36:51.385Z,50.75
2023-03-07T17:38:00.297Z,48.25
2023-03-07T17:39:09.496Z,46.07
2023-03-07T17:41:34.698Z,48.23
2023-03-07T17:42:44.427Z,45.33
2023-03-07T17:43:52.916Z,48.07
2023-03-07T17:45:01.870Z,49.65
2023-03-07T17:46:12.330Z,47.83
2023-03-07T17:47:20.893Z,43.35
2023-03-07T17:49:46.920Z,42.97
2023-03-07T17:50:55.946Z,45.45
2023-03-07T17:52:08.060Z,86.90
2023-03-07T17:53:17.586Z,55.38
2023-03-07T17:54:27.322Z,43.83
2023-03-07T17:55:38.591Z,39.63
2023-03-07T17:56:49.840Z,38.25
2023-03-07T17:57:59.293Z,32.97
2023-03-07T17:59:08.418Z,36.03
2023-03-07T18:00:20.758Z,36.63
2023-03-07T18:01:30.993Z,28.28
2023-03-07T18:04:02.935Z,28.57
2023-03-07T18:05:24.027Z,29.27
2023-03-07T18:06:38.397Z,27.47
2023-03-07T18:09:07.418Z,27.77
2023-03-07T18:12:41.428Z,27.97
2023-03-07T18:13:50.459Z,24.97
2023-03-07T18:14:59.578Z,26.77
2023-03-07T18:16:10.260Z,26.52
2023-03-07T18:17:20.767Z,25.70
2023-03-07T18:18:43.315Z,28.20
2023-03-07T18:20:00.867Z,24.75
2023-03-07T18:21:16.001Z,24.73
2023-03-07T18:22:24.991Z,24.67
2023-03-07T18:23:34.821Z,23.20
2023-03-07T18:24:44.010Z,22.53
2023-03-07T18:27:15.550Z,23.03
2023-03-07T18:28:26.804Z,21.30
2023-03-07T18:29:36.468Z,23.53
2023-03-07T18:30:46.284Z,24.02
2023-03-07T18:31:55.520Z,22.53
2023-03-07T18:33:04.433Z,23.20
2023-03-07T18:34:14.500Z,21.52
2023-03-07T18:35:23.373Z,23.07
2023-03-07T18:36:33.186Z,25.08
2023-03-07T18:37:44.991Z,21.45
2023-03-07T18:38:59.525Z,22.35
2023-03-07T18:40:11.138Z,22.93
2023-03-07T18:42:44.824Z,22.00
2023-03-07T18:43:56.452Z,25.75
2023-03-07T18:45:06.955Z,21.82
2023-03-07T18:47:26.213Z,25.15
2023-03-07T18:48:35.610Z,27.60
2023-03-07T18:49:45.512Z,28.40
2023-03-07T18:50:59.608Z,28.03
2023-03-07T18:52:08.169Z,30.08
2023-03-07T18:53:16.830Z,30.85
2023-03-07T18:54:26.109Z,26.80
2023-03-07T18:55:38.000Z,26.90
2023-03-07T18:56:47.924Z,29.32
2023-03-07T18:57:56.465Z,28.95
2023-03-07T18:59:05.150Z,31.15
2023-03-07T19:00:15.825Z,28.32
2023-03-07T19:01:27.579Z,30.85
2023-03-07T19:02:38.769Z,31.63
2023-03-07T19:03:49.629Z,30.17
2023-03-07T19:04:58.750Z,29.75
2023-03-07T19:06:08.493Z,31.65